createdAt,value
2022-08-26T00:01:38.819Z,52.40
2022-08-26T00:04:25.986Z,52.27
2022-08-26T00:07:12.290Z,52.26
2022-08-26T00:09:59.079Z,52.17
2022-08-26T00:12:46.291Z,56.07
2022-08-26T00:15:33.157Z,52.38
2022-08-26T00:18:22.198Z,52.32
2022-08-26T00:21:08.957Z,52.81
2022-08-26T00:23:54.985Z,53.60
2022-08-26T00:26:41.550Z,53.27
2022-08-26T00:29:27.783Z,52.66
2022-08-26T00:32:13.556Z,52.77
2022-08-26T00:35:00.542Z,52.94
2022-08-26T00:37:46.882Z,52.89
2022-08-26T00:40:36.158Z,53.66
2022-08-26T00:43:23.195Z,52.73
2022-08-26T00:46:20.709Z,52.99
2022-08-26T00:49:15.477Z,52.77
2022-08-26T00:52:05.769Z,53.50
2022-08-26T00:55:07.678Z,52.96
2022-08-26T00:57:53.808Z,53.02
2022-08-26T01:00:40.213Z,52.80
2022-08-26T01:03:28.195Z,53.02
2022-08-26T01:06:14.479Z,52.96
2022-08-26T01:09:00.454Z,53.45
2022-08-26T01:11:47.944Z,52.92
2022-08-26T01:14:35.714Z,52.78
2022-08-26T01:17:22.938Z,53.03
2022-08-26T01:20:24.189Z,52.94
2022-08-26T01:23:11.420Z,52.95
2022-08-26T01:26:01.224Z,53.22
2022-08-26T01:28:50.591Z,53.17
2022-08-26T01:31:44.532Z,53.04
2022-08-26T01:34:36.724Z,52.94
2022-08-26T01:37:27.147Z,53.52
2022-08-26T01:40:17.637Z,53.42
2022-08-26T01:43:06.875Z,53.49
2022-08-26T01:45:55.005Z,53.40
2022-08-26T01:48:42.936Z,53.52
2022-08-26T01:51:29.779Z,53.67
2022-08-26T01:54:15.692Z,53.58
2022-08-26T01:57:02.171Z,53.47
2022-08-26T01:59:50.258Z,53.44
2022-08-26T02:02:37.132Z,53.37
2022-08-26T02:05:23.397Z,53.50
2022-08-26T02:08:10.466Z,53.69
2022-08-26T02:10:56.472Z,53.68
2022-08-26T02:13:46.284Z,53.78
2022-08-26T02:16:36.911Z,53.96
2022-08-26T02:19:27.873Z,54.14
2022-08-26T02:22:16.956Z,53.86
2022-08-26T02:25:45.026Z,53.98
2022-08-26T02:28:34.786Z,54.12
2022-08-26T02:31:20.776Z,53.98
2022-08-26T02:34:15.303Z,53.93
2022-08-26T02:37:05.371Z,54.27
2022-08-26T02:39:51.583Z,54.15
2022-08-26T02:42:38.464Z,54.06
2022-08-26T02:45:26.306Z,54.04
2022-08-26T02:48:16.183Z,54.11
2022-08-26T02:51:04.712Z,54.44
2022-08-26T02:53:50.370Z,54.15
2022-08-26T02:56:37.528Z,54.18
2022-08-26T02:59:24.407Z,54.47
2022-08-26T03:02:11.404Z,54.27
2022-08-26T03:05:02.411Z,54.16
2022-08-26T03:07:49.168Z,54.29
2022-08-26T03:10:35.306Z,54.20
2022-08-26T03:13:21.105Z,54.51
2022-08-26T03:16:08.028Z,57.93
2022-08-26T03:18:53.876Z,56.41
2022-08-26T03:21:40.258Z,55.48
2022-08-26T03:24:26.764Z,56.20
2022-08-26T03:27:13.608Z,56.30
2022-08-26T03:30:19.072Z,57.13
2022-08-26T03:33:07.446Z,56.75
2022-08-26T03:35:54.159Z,56.51
2022-08-26T03:38:40.323Z,57.53
2022-08-26T03:41:26.508Z,56.50
2022-08-26T03:44:13.120Z,56.36
2022-08-26T03:46:59.178Z,56.49
2022-08-26T03:49:45.147Z,56.84
2022-08-26T03:52:31.370Z,57.00
2022-08-26T03:55:18.258Z,56.50
2022-08-26T03:58:04.683Z,56.52
2022-08-26T04:00:55.714Z,56.47
2022-08-26T04:04:00.891Z,58.43
2022-08-26T04:06:46.713Z,56.87
2022-08-26T04:09:32.564Z,56.99
2022-08-26T04:12:21.624Z,57.26
2022-08-26T04:15:10.742Z,56.80
2022-08-26T04:17:57.387Z,56.71
2022-08-26T04:20:43.738Z,56.83
2022-08-26T04:23:29.711Z,57.37
2022-08-26T04:26:16.960Z,57.37
2022-08-26T04:29:05.616Z,56.87
2022-08-26T04:31:55.768Z,56.87
2022-08-26T04:34:41.814Z,56.64
2022-08-26T04:37:28.031Z,56.93
2022-08-26T04:40:14.018Z,56.99
2022-08-26T04:43:00.310Z,56.94
2022-08-26T04:45:46.220Z,57.12
2022-08-26T04:48:33.921Z,57.00
2022-08-26T04:51:21.003Z,57.28
2022-08-26T04:54:07.591Z,56.89
2022-08-26T04:56:53.920Z,57.04
2022-08-26T04:59:40.336Z,57.06
2022-08-26T05:02:26.466Z,56.98
2022-08-26T05:05:13.713Z,56.96
2022-08-26T05:07:59.833Z,57.17
2022-08-26T05:10:51.673Z,57.27
2022-08-26T05:13:39.162Z,57.10
2022-08-26T05:16:25.220Z,57.19
2022-08-26T05:19:11.710Z,56.97
2022-08-26T05:21:58.005Z,57.25
2022-08-26T05:24:44.110Z,57.32
2022-08-26T05:27:30.233Z,57.23
2022-08-26T05:30:16.661Z,57.36
2022-08-26T05:33:03.602Z,56.96
2022-08-26T05:35:49.957Z,57.03
2022-08-26T05:38:36.343Z,56.83
2022-08-26T05:41:34.152Z,57.33
2022-08-26T05:44:22.372Z,57.34
2022-08-26T05:47:08.821Z,57.33
2022-08-26T05:49:55.431Z,57.13
2022-08-26T05:52:41.390Z,57.16
2022-08-26T05:55:27.375Z,57.24
2022-08-26T05:58:13.774Z,57.01
2022-08-26T06:01:05.565Z,57.05
2022-08-26T06:03:53.120Z,57.12
2022-08-26T06:06:41.726Z,56.89
2022-08-26T06:09:29.205Z,56.84
2022-08-26T06:12:16.513Z,56.85
2022-08-26T06:15:04.700Z,57.15
2022-08-26T06:17:51.653Z,56.90
2022-08-26T06:20:43.590Z,56.89
2022-08-26T06:24:01.322Z,56.76
2022-08-26T06:26:53.114Z,57.10
2022-08-26T06:29:39.067Z,56.95
2022-08-26T06:32:25.122Z,57.29
2022-08-26T06:35:12.161Z,57.03
2022-08-26T09:03:52.711Z,60.52
2022-08-26T09:06:44.413Z,59.79
2022-08-26T09:09:36.164Z,57.97
2022-08-26T09:12:29.777Z,58.49
2022-08-26T09:15:25.422Z,57.07
2022-08-26T09:18:35.325Z,57.66
2022-08-26T09:21:23.580Z,56.92
2022-08-26T09:24:13.865Z,56.41
2022-08-26T09:27:00.108Z,55.75
2022-08-26T09:29:46.352Z,55.72
2022-08-26T09:32:36.803Z,55.15
2022-08-26T09:35:31.077Z,54.36
2022-08-26T09:38:32.954Z,53.34
2022-08-26T09:41:24.941Z,53.37
2022-08-26T09:44:15.785Z,52.54
2022-08-26T09:47:05.279Z,52.73
2022-08-26T09:50:09.602Z,52.62
2022-08-26T09:53:21.027Z,46.08
2022-08-26T09:56:23.812Z,48.17
2022-08-26T09:59:12.135Z,49.93
2022-08-26T10:02:36.186Z,49.46
2022-08-26T10:05:31.159Z,49.55
2022-08-26T10:08:36.813Z,49.26
2022-08-26T10:11:35.266Z,48.14
2022-08-26T10:14:28.383Z,48.00
2022-08-26T10:17:23.638Z,47.90
2022-08-26T10:20:22.788Z,47.84
2022-08-26T10:23:18.094Z,47.45
2022-08-26T10:26:25.657Z,47.84
2022-08-26T10:29:36.156Z,46.39
2022-08-26T10:32:35.289Z,46.78
2022-08-26T10:35:27.152Z,41.57
2022-08-26T10:38:17.256Z,46.12
2022-08-26T10:41:15.896Z,39.35
2022-08-26T10:44:05.749Z,45.80
2022-08-26T10:46:56.908Z,45.87
2022-08-26T10:49:43.408Z,45.57
2022-08-26T10:52:39.321Z,45.46
2022-08-26T10:55:52.506Z,45.09
2022-08-26T10:58:56.296Z,44.90
2022-08-26T11:02:00.377Z,45.01
2022-08-26T11:04:56.964Z,44.79
2022-08-26T11:07:46.254Z,44.77
2022-08-26T11:10:38.295Z,44.44
2022-08-26T11:14:03.245Z,44.88
2022-08-26T11:16:54.384Z,44.25
2022-08-26T11:19:59.709Z,44.70
2022-08-26T11:22:47.968Z,44.57
2022-08-26T11:25:34.377Z,44.27
2022-08-26T11:28:34.400Z,44.04
2022-08-26T11:31:26.786Z,44.13
2022-08-26T11:34:14.020Z,44.41
2022-08-26T11:37:01.689Z,43.79
2022-08-26T11:39:55.612Z,43.19
2022-08-26T11:42:47.093Z,43.26
2022-08-26T11:46:02.977Z,42.99
2022-08-26T11:48:49.108Z,43.01
2022-08-26T11:51:40.365Z,42.87
2022-08-26T11:54:35.170Z,42.92
2022-08-26T11:57:21.833Z,42.95
2022-08-26T12:00:15.843Z,42.51
2022-08-26T12:03:08.101Z,41.68
2022-08-26T12:05:54.505Z,41.45
2022-08-26T12:08:43.881Z,41.32
2022-08-26T12:11:33.022Z,40.94
2022-08-26T12:14:22.262Z,40.31
2022-08-26T12:17:19.832Z,40.39
2022-08-26T12:20:56.389Z,40.12
2022-08-26T12:23:45.617Z,39.72
2022-08-26T12:26:35.771Z,39.29
2022-08-26T12:29:28.172Z,38.10
2022-08-26T12:32:17.867Z,39.20
2022-08-26T12:37:56.084Z,39.04
2022-08-26T12:40:45.269Z,38.57
2022-08-26T12:43:45.866Z,38.96
2022-08-26T12:46:31.945Z,38.90
2022-08-26T12:49:18.601Z,38.57
2022-08-26T12:52:06.345Z,38.72
2022-08-26T12:54:59.614Z,38.74
2022-08-26T12:57:47.350Z,38.98
2022-08-26T13:00:37.431Z,38.71
2022-08-26T13:03:37.306Z,38.11
2022-08-26T13:06:23.488Z,38.22
2022-08-26T13:09:09.301Z,37.91
2022-08-26T13:11:55.357Z,37.58
2022-08-26T13:14:41.209Z,37.19
2022-08-26T13:17:29.117Z,36.81
2022-08-26T13:20:15.101Z,36.33
2022-08-26T13:23:01.386Z,36.71
2022-08-26T13:25:47.420Z,36.21
2022-08-26T13:28:35.916Z,36.24
2022-08-26T13:31:22.736Z,36.24
2022-08-26T13:34:16.052Z,36.41
2022-08-26T13:37:02.032Z,36.11
2022-08-26T13:39:50.913Z,35.93
2022-08-26T13:42:37.308Z,36.11
2022-08-26T13:45:36.785Z,35.84
2022-08-26T13:48:23.709Z,35.51
2022-08-26T13:51:10.165Z,35.60
2022-08-26T13:53:57.980Z,35.89
2022-08-26T15:19:49.680Z,31.92
2022-08-26T15:22:37.212Z,32.14
2022-08-26T15:25:23.988Z,32.09
2022-08-26T15:28:12.865Z,32.17
2022-08-26T15:31:00.803Z,31.58
2022-08-26T15:33:47.519Z,31.48
2022-08-26T15:36:34.312Z,31.38
2022-08-26T15:39:20.922Z,31.38
2022-08-26T15:42:07.557Z,31.22
2022-08-26T15:44:54.666Z,31.02
2022-08-26T15:48:00.622Z,30.87
2022-08-26T15:50:55.335Z,30.89
2022-08-26T15:53:41.525Z,30.39
2022-08-26T15:56:31.552Z,30.73
2022-08-26T15:59:18.951Z,30.41
2022-08-26T16:02:05.589Z,30.47
2022-08-26T16:04:51.795Z,30.09
2022-08-26T16:07:40.542Z,30.28
2022-08-26T16:10:26.641Z,30.37
2022-08-26T16:13:14.758Z,30.01
2022-08-26T16:16:01.686Z,29.95
2022-08-26T16:18:50.144Z,30.31
2022-08-26T16:21:36.339Z,30.26
2022-08-26T16:24:25.997Z,30.09
2022-08-26T16:27:14.815Z,30.33
2022-08-26T16:30:00.940Z,30.30
2022-08-26T16:32:48.012Z,30.40
2022-08-26T16:35:34.374Z,30.42
2022-08-26T16:38:20.873Z,30.33
2022-08-26T16:41:08.270Z,30.45
2022-08-26T16:43:54.617Z,30.55
2022-08-26T16:46:41.224Z,30.88
2022-08-26T16:49:27.490Z,30.88
2022-08-26T16:52:14.067Z,31.12
2022-08-26T16:55:00.253Z,31.20
2022-08-26T16:57:46.284Z,31.10
2022-08-26T17:00:34.143Z,31.53
2022-08-26T17:03:20.189Z,31.50
2022-08-26T17:06:06.445Z,31.33
2022-08-26T17:08:53.122Z,31.52
2022-08-26T17:11:39.004Z,31.53
2022-08-26T17:14:25.210Z,32.34
2022-08-26T17:17:11.488Z,31.84
2022-08-26T17:19:57.564Z,31.89
2022-08-26T17:22:47.392Z,31.94
2022-08-26T17:25:33.577Z,32.33
2022-08-26T17:28:19.676Z,32.09
2022-08-26T17:31:09.362Z,32.06
2022-08-26T17:33:56.046Z,32.24
2022-08-26T17:36:42.124Z,32.43
2022-08-26T17:39:28.086Z,32.61
2022-08-26T17:42:14.407Z,32.69
2022-08-26T17:45:00.915Z,32.87
2022-08-26T17:47:47.321Z,33.00
2022-08-26T17:50:33.525Z,33.10
2022-08-26T17:53:19.977Z,33.20
2022-08-26T17:56:08.754Z,33.48
2022-08-26T17:58:56.972Z,33.61
2022-08-26T18:01:43.261Z,33.53
2022-08-26T18:04:29.215Z,33.66
2022-08-26T18:07:16.277Z,33.87
2022-08-26T18:10:05.045Z,34.02
2022-08-26T18:12:52.090Z,34.32
2022-08-26T18:15:42.443Z,34.02
2022-08-26T18:18:28.485Z,34.43
2022-08-26T18:21:20.350Z,34.63
2022-08-26T18:24:08.320Z,34.79
2022-08-26T18:26:57.592Z,34.44
2022-08-26T18:29:45.501Z,34.94
2022-08-26T18:32:31.543Z,34.98
2022-08-26T18:35:18.389Z,34.86
2022-08-26T18:38:11.295Z,35.03
2022-08-26T18:40:57.633Z,35.26
2022-08-26T18:43:43.646Z,35.32
2022-08-26T18:46:29.660Z,35.38
2022-08-26T18:49:17.605Z,35.62
2022-08-26T18:52:04.421Z,35.43
2022-08-26T18:54:50.585Z,36.06
2022-08-26T18:57:36.512Z,35.58
2022-08-26T19:00:22.805Z,35.99
2022-08-26T19:03:18.805Z,35.87
2022-08-26T19:06:05.449Z,36.36
2022-08-26T19:08:51.374Z,36.50
2022-08-26T19:11:42.814Z,36.32
2022-08-26T19:14:29.693Z,36.64
2022-08-26T19:17:15.625Z,36.60
2022-08-26T19:20:01.868Z,36.84
2022-08-26T19:22:48.088Z,36.73
2022-08-26T19:25:34.150Z,36.86
2022-08-26T19:28:21.778Z,37.28
2022-08-26T19:31:12.668Z,37.33
2022-08-26T19:33:59.065Z,37.13
2022-08-26T19:36:46.832Z,37.24
2022-08-26T19:39:33.074Z,37.45
2022-08-26T19:42:19.255Z,37.48
2022-08-26T19:45:20.253Z,37.67
2022-08-26T19:48:11.455Z,37.75
2022-08-26T19:50:57.439Z,37.74
2022-08-26T19:53:44.794Z,37.96
2022-08-26T19:56:30.951Z,38.04
2022-08-26T19:59:17.655Z,38.26
2022-08-26T20:02:10.063Z,38.02
2022-08-26T20:04:56.871Z,38.43
2022-08-26T20:07:43.749Z,38.61
2022-08-26T20:10:30.109Z,38.54
2022-08-26T20:13:16.103Z,38.68
2022-08-26T20:16:02.796Z,38.85
2022-08-26T20:19:07.185Z,38.80
2022-08-26T20:21:53.525Z,39.06
2022-08-26T20:24:39.651Z,39.00
2022-08-26T20:27:30.805Z,39.24
2022-08-26T20:30:24.713Z,39.25
2022-08-26T20:33:10.863Z,39.42
2022-08-26T20:35:56.756Z,39.63
2022-08-26T20:38:46.164Z,39.78
2022-08-26T20:41:32.999Z,39.75
2022-08-26T20:44:18.952Z,39.85
2022-08-26T20:47:05.534Z,39.96
2022-08-26T20:49:52.321Z,40.19
2022-08-26T20:52:38.972Z,40.12
2022-08-26T20:55:26.206Z,40.21
2022-08-26T20:58:12.185Z,40.18
2022-08-26T21:00:58.340Z,40.34
2022-08-26T21:03:44.787Z,40.54
2022-08-26T21:06:33.901Z,40.53
2022-08-26T21:09:21.247Z,40.58
2022-08-26T21:12:07.652Z,40.61
2022-08-26T21:14:54.076Z,40.86
2022-08-26T21:17:40.153Z,40.93
2022-08-26T21:20:26.328Z,41.02
2022-08-26T21:23:13.672Z,41.11
2022-08-26T21:26:04.855Z,41.29
2022-08-26T21:28:52.020Z,41.15
2022-08-26T21:31:42.163Z,41.28
2022-08-26T21:34:31.514Z,41.39
2022-08-26T21:37:17.849Z,41.49
2022-08-26T21:40:05.418Z,41.72
2022-08-26T21:42:51.616Z,41.70
2022-08-26T21:45:41.333Z,42.14
2022-08-26T21:48:32.212Z,42.08
2022-08-26T21:51:22.477Z,42.41
2022-08-26T21:54:11.379Z,41.87
2022-08-26T21:56:57.820Z,42.52
2022-08-26T21:59:43.663Z,42.50
2022-08-26T22:02:30.622Z,42.79
2022-08-26T22:05:16.698Z,42.64
2022-08-26T22:08:03.057Z,43.05
2022-08-26T22:10:52.019Z,43.01
2022-08-26T22:13:40.208Z,43.04
2022-08-26T22:16:28.685Z,43.16
2022-08-26T22:19:17.339Z,43.00
2022-08-26T22:22:04.107Z,43.22
2022-08-26T22:24:49.866Z,43.03
2022-08-26T22:27:40.483Z,43.57
2022-08-26T22:30:28.842Z,43.44
2022-08-26T22:33:15.465Z,43.67
2022-08-26T22:36:01.578Z,43.88
2022-08-26T22:38:48.165Z,43.99
2022-08-26T22:41:35.345Z,43.98
2022-08-26T22:44:22.299Z,43.87
2022-08-26T22:47:08.459Z,44.04
2022-08-26T22:49:54.452Z,44.19
2022-08-26T22:52:40.601Z,43.92
2022-08-26T22:55:26.798Z,44.15
2022-08-26T22:58:14.697Z,44.29
2022-08-26T23:01:01.043Z,44.13
2022-08-26T23:03:47.185Z,44.18
2022-08-26T23:06:38.709Z,44.34
2022-08-26T23:09:24.764Z,44.35
2022-08-26T23:12:10.675Z,44.53
2022-08-26T23:14:56.650Z,44.79
2022-08-26T23:17:42.512Z,44.72
2022-08-26T23:20:29.188Z,44.75
2022-08-26T23:23:15.260Z,44.90
2022-08-26T23:26:05.584Z,44.85
2022-08-26T23:28:53.401Z,45.00
2022-08-26T23:31:41.693Z,45.19
2022-08-26T23:34:45.968Z,45.18
2022-08-26T23:37:38.480Z,45.06
2022-08-26T23:40:32.737Z,45.42
2022-08-26T23:43:18.827Z,44.74
2022-08-26T23:46:04.932Z,45.26
2022-08-26T23:48:51.078Z,45.36
2022-08-26T23:51:56.699Z,45.55
2022-08-26T23:54:42.852Z,45.38
2022-08-26T23:57:29.174Z,45.63
